PAFA/FAI METAR and TAF weather

Enter ICAO airport designator
Station Type Date Time Source
PAFA METAR 2024/06/15 21:53 UTC NOAA

PAFA 152153Z COR 28007KT 10SM FEW060 FEW120 SCT170 24/09 A3009 RMK AO2 SLP191 PRESNT WX VCSH SW-W T02440094


Station Type Date Time Source
PAFA Decoded METAR 2024/06/15 21:53 UTC NOAA

Fairbanks, Fairbanks International Airport, AK, United States (PAFA) 64-48-14N 147-52-34W 140M
Jun 15, 2024 - 05:53 PM EDT / 2024.06.15 2153 UTC
Wind: from the W (280 degrees) at 8 MPH (7 KT):0
Visibility: 10 mile(s):0
Sky conditions: partly cloudy
Temperature: 75.9 F (24.4 C)
Dew Point: 48.9 F (9.4 C)
Relative Humidity: 38%
Pressure (altimeter): 30.09 in. Hg (1018 hPa)
ob: PAFA 152153Z COR 28007KT 10SM FEW060 FEW120 SCT170 24/09 A3009 RMK AO2 SLP191 PRESNT WX VCSH SW-W T02440094
cycle: 22

Station Type Date Time Source
PAFA TAF 2024/06/15 22:46 UTC NOAA